Time;durP1;ratioP1;P1;durP2;ratioP2;P2;SDS_P1;SDS_P2;PMS_P1;PMS_P2;Temp;Humidity;BMP_temperature;BMP_pressure;BME280_temperature;BME280_humidity;BME280_pressure;Samples;Min_cycle;Max_cycle;Signal;HPM_P1;HPM_P2
2023/05/25 00:02:19;;;;;;;33.07;23.00;;;13.70;99.90;;;;;;5799900;24;20176;-84
2023/05/25 00:06:54;;;;;;;32.07;23.20;;;13.60;99.90;;;;;;5860344;23;20218;-82
2023/05/25 00:42:11;;;;;;;36.27;24.93;;;13.30;99.90;;;;;;5960174;23;20652;-84
2023/05/25 01:07:31;;;;;;;42.07;26.87;;;13.20;99.90;;;;;;5823725;24;20343;-84
2023/05/25 01:38:34;;;;;;;43.63;27.83;;;13.60;99.90;;;;;;6002695;23;20216;-85
2023/05/25 02:03:59;;;;;;;49.73;29.93;;;13.80;99.90;;;;;;5890322;24;20175;-84
2023/05/25 02:29:10;;;;;;;42.80;28.20;;;13.80;99.90;;;;;;5739244;24;20247;-85
2023/05/25 02:54:25;;;;;;;41.77;27.37;;;14.00;99.90;;;;;;5686927;24;20226;-83
2023/05/25 03:19:49;;;;;;;43.97;26.73;;;13.90;99.90;;;;;;5720500;24;20354;-82
2023/05/25 03:50:13;;;;;;;41.63;28.43;;;13.80;99.90;;;;;;5852041;23;20230;-83
2023/05/25 04:51:05;;;;;;;41.43;26.83;;;15.00;99.90;;;;;;5838658;24;20155;-84
2023/05/25 05:21:23;;;;;;;44.00;28.50;;;15.00;99.90;;;;;;5872065;23;20178;-83
2023/05/25 05:46:28;;;;;;;40.40;27.57;;;15.10;99.90;;;;;;5887114;23;20255;-83
2023/05/25 06:52:37;;;;;;;31.50;25.10;;;15.60;99.90;;;;;;5825141;24;20200;-81
2023/05/25 07:17:32;;;;;;;32.57;25.03;;;16.00;99.90;;;;;;5825898;23;20439;-84
2023/05/25 07:43:23;;;;;;;30.13;23.37;;;16.70;99.90;;;;;;5801333;24;20222;-84
2023/05/25 10:25:57;;;;;;;27.20;22.30;;;19.50;90.20;;;;;;5849856;24;20286;-83
2023/05/25 10:30:16;;;;;;;29.33;23.07;;;19.60;90.40;;;;;;5793750;24;20755;-84
2023/05/25 10:51:08;;;;;;;25.63;20.52;;;20.40;89.40;;;;;;5839390;24;20687;-84
2023/05/25 11:16:38;;;;;;;21.73;19.42;;;21.20;85.50;;;;;;5839128;23;20183;-83
2023/05/25 12:11:44;;;;;;;17.95;16.02;;;22.10;85.50;;;;;;5741772;24;20632;-83
2023/05/25 12:32:27;;;;;;;17.30;15.65;;;23.10;82.30;;;;;;5867416;24;20686;-85
2023/05/25 12:52:48;;;;;;;15.70;14.00;;;25.30;77.10;;;;;;5894708;24;20200;-83
2023/05/25 13:18:11;;;;;;;15.25;13.75;;;23.90;80.60;;;;;;6016419;23;20520;-84
2023/05/25 14:13:26;;;;;;;11.50;10.43;;;29.20;57.60;;;;;;5767228;23;20358;-82
2023/05/25 14:29:22;;;;;;;11.15;10.15;;;28.90;57.10;;;;;;5943089;23;20207;-84
2023/05/25 14:54:07;;;;;;;13.23;11.88;;;27.60;56.90;;;;;;5562866;24;20639;-83
2023/05/25 15:14:58;;;;;;;12.57;11.45;;;27.80;56.40;;;;;;5648068;24;20179;-84
2023/05/25 15:44:47;;;;;;;12.25;11.05;;;25.50;56.70;;;;;;5867910;23;20943;-84
2023/05/25 16:10:20;;;;;;;13.05;11.75;;;23.70;78.40;;;;;;5700893;24;20633;-81
2023/05/25 16:35:52;;;;;;;13.20;11.85;;;23.50;77.80;;;;;;5665051;24;20279;-81
2023/05/25 17:10:59;;;;;;;14.18;12.30;;;22.60;80.70;;;;;;5667490;24;20727;-83
2023/05/25 17:36:48;;;;;;;14.80;11.73;;;22.10;81.70;;;;;;5746382;24;20221;-84
2023/05/25 18:12:24;;;;;;;12.85;11.52;;;21.40;84.60;;;;;;5909993;23;20422;-84
2023/05/25 18:48:05;;;;;;;13.90;12.57;;;20.60;87.80;;;;;;5984356;23;20250;-82
2023/05/25 18:52:21;;;;;;;14.97;13.13;;;20.40;88.40;;;;;;5902132;23;20663;-85
2023/05/25 19:12:56;;;;;;;14.87;13.47;;;20.10;90.20;;;;;;5799890;24;20600;-85
2023/05/25 19:28:28;;;;;;;14.37;12.97;;;20.10;89.60;;;;;;5736075;24;20622;-83
2023/05/25 19:53:48;;;;;;;14.53;12.53;;;20.40;88.40;;;;;;5827361;23;20543;-82
2023/05/25 20:24:00;;;;;;;17.73;15.07;;;19.80;91.40;;;;;;5846893;23;20274;-83
2023/05/25 20:44:27;;;;;;;16.73;15.17;;;19.30;93.20;;;;;;5923928;23;20260;-84
2023/05/25 21:14:46;;;;;;;17.63;15.93;;;18.90;96.00;;;;;;5850040;24;20511;-82
2023/05/25 21:40:16;;;;;;;18.67;16.70;;;17.90;99.90;;;;;;5799870;24;20251;-82
2023/05/25 22:00:30;;;;;;;17.40;14.77;;;17.80;99.90;;;;;;5748916;24;20236;-83
2023/05/25 22:35:27;;;;;;;13.47;12.27;;;17.00;99.90;;;;;;5699190;24;20248;-84
2023/05/25 22:55:47;;;;;;;13.03;11.73;;;17.30;99.90;;;;;;5502066;25;21220;-85
2023/05/25 23:21:44;;;;;;;14.23;12.50;;;17.10;99.90;;;;;;5748631;24;20179;-82
